createdAt,value
2023-04-15T00:01:11.790Z,100842.97
2023-04-15T00:03:39.459Z,100849.00
2023-04-15T00:06:07.656Z,100843.00
2023-04-15T00:08:35.147Z,100843.00
2023-04-15T00:11:05.782Z,100847.28
2023-04-15T00:13:34.066Z,100833.47
2023-04-15T00:16:02.270Z,100843.84
2023-04-15T00:18:31.605Z,100838.41
2023-04-15T00:20:59.361Z,100835.81
2023-04-15T00:23:26.854Z,100845.41
2023-04-15T00:25:54.280Z,100836.09
2023-04-15T00:28:21.757Z,100837.63
2023-04-15T00:30:49.241Z,100844.63
2023-04-15T00:33:17.682Z,100842.06
2023-04-15T00:35:45.091Z,100833.41
2023-04-15T00:38:12.527Z,100842.16
2023-04-15T00:40:40.016Z,100843.75
2023-04-15T00:43:07.478Z,100839.63
2023-04-15T00:45:35.012Z,100844.84
2023-04-15T00:48:02.605Z,100840.44
2023-04-15T00:50:30.056Z,100840.53
2023-04-15T00:52:57.473Z,100842.31
2023-04-15T00:55:25.546Z,100845.84
2023-04-15T00:57:53.233Z,100854.47
2023-04-15T01:00:21.435Z,100858.00
2023-04-15T01:02:48.984Z,100851.94
2023-04-15T01:05:18.610Z,100852.81
2023-04-15T01:07:46.069Z,100855.41
2023-04-15T01:10:13.545Z,100849.41
2023-04-15T01:12:41.239Z,100852.06
2023-04-15T01:15:09.458Z,100858.09
2023-04-15T01:17:37.335Z,100858.13
2023-04-15T01:20:05.202Z,100851.97
2023-04-15T01:22:34.433Z,100853.75
2023-04-15T01:25:06.172Z,100844.25
2023-04-15T01:27:34.211Z,100850.28
2023-04-15T01:30:03.293Z,100854.72
2023-04-15T01:32:30.991Z,100856.44
2023-04-15T01:34:58.489Z,100849.47
2023-04-15T01:37:26.060Z,100847.69
2023-04-15T01:39:53.433Z,100845.91
2023-04-15T01:42:22.588Z,100848.66
2023-04-15T01:44:50.099Z,100851.19
2023-04-15T01:47:17.634Z,100849.56
2023-04-15T01:49:45.013Z,100854.59
2023-04-15T01:52:12.454Z,100856.44
2023-04-15T01:54:39.888Z,100853.84
2023-04-15T01:57:07.342Z,100854.72
2023-04-15T01:59:34.748Z,100860.75
2023-04-15T02:02:02.375Z,100861.63
2023-04-15T02:04:29.913Z,100866.81
2023-04-15T02:06:57.752Z,100861.69
2023-04-15T02:09:25.129Z,100867.59
2023-04-15T02:11:53.629Z,100862.56
2023-04-15T02:14:21.019Z,100868.56
2023-04-15T02:16:48.501Z,100865.13
2023-04-15T02:19:16.367Z,100871.22
2023-04-15T02:21:43.768Z,100865.13
2023-04-15T02:24:12.172Z,100877.25
2023-04-15T02:26:39.557Z,100884.19
2023-04-15T02:29:06.968Z,100880.78
2023-04-15T02:31:40.459Z,100885.97
2023-04-15T02:34:08.237Z,100881.66
2023-04-15T02:36:35.716Z,100893.72
2023-04-15T02:39:03.538Z,100890.22
2023-04-15T02:41:31.186Z,100902.44
2023-04-15T02:43:58.626Z,100894.63
2023-04-15T02:46:27.379Z,100892.91
2023-04-15T02:48:54.847Z,100899.84
2023-04-15T02:51:23.040Z,100900.72
2023-04-15T02:53:50.932Z,100906.84
2023-04-15T02:56:19.449Z,100900.78
2023-04-15T02:58:46.907Z,100907.66
2023-04-15T03:01:14.827Z,100905.09
2023-04-15T03:03:42.465Z,100910.28
2023-04-15T03:06:09.973Z,100913.78
2023-04-15T03:08:37.411Z,100913.78
2023-04-15T03:11:05.276Z,100913.75
2023-04-15T03:13:32.740Z,100912.06
2023-04-15T03:16:00.219Z,100915.50
2023-04-15T03:18:28.882Z,100918.94
2023-04-15T03:20:56.322Z,100917.25
2023-04-15T03:23:23.698Z,100921.56
2023-04-15T03:25:51.236Z,100922.44
2023-04-15T03:28:18.658Z,100925.88
2023-04-15T03:30:46.263Z,100938.00
2023-04-15T03:33:13.648Z,100927.63
2023-04-15T03:35:41.259Z,100930.22
2023-04-15T03:38:08.714Z,100936.25
2023-04-15T03:40:36.229Z,100940.56
2023-04-15T03:43:03.661Z,100941.44
2023-04-15T03:45:31.426Z,100945.78
2023-04-15T03:48:15.524Z,100948.31
2023-04-15T03:50:44.467Z,100946.63
2023-04-15T03:53:11.972Z,100941.38
2023-04-15T03:55:39.395Z,100953.53
2023-04-15T03:58:06.774Z,100956.94
2023-04-15T04:00:34.165Z,100955.19
2023-04-15T04:03:01.849Z,100956.97
2023-04-15T04:05:29.381Z,100960.44
2023-04-15T04:07:56.847Z,100961.25
2023-04-15T04:10:24.465Z,100972.50
2023-04-15T04:12:51.988Z,100969.06
2023-04-15T04:15:19.381Z,100969.81
2023-04-15T04:17:46.835Z,100973.22
2023-04-15T04:20:14.342Z,100983.56
2023-04-15T04:22:41.882Z,100975.84
2023-04-15T04:25:10.103Z,100982.66
2023-04-15T04:27:37.613Z,100980.16
2023-04-15T04:30:05.758Z,100993.09
2023-04-15T04:32:33.317Z,100987.84
2023-04-15T04:35:00.982Z,100994.78
2023-04-15T04:37:28.397Z,101004.22
2023-04-15T04:39:56.233Z,101004.22
2023-04-15T04:42:23.693Z,101005.09
2023-04-15T04:44:51.530Z,101008.53
2023-04-15T04:47:18.978Z,101022.41
2023-04-15T04:49:46.429Z,101021.41
2023-04-15T04:52:13.864Z,101023.25
2023-04-15T04:54:41.296Z,101036.09
2023-04-15T04:57:08.770Z,101029.16
2023-04-15T04:59:36.593Z,101044.66
2023-04-15T05:02:04.398Z,101048.25
2023-04-15T05:04:32.180Z,101047.19
2023-04-15T05:07:00.332Z,101049.94
2023-04-15T05:09:28.218Z,101046.44
2023-04-15T05:11:56.129Z,101049.13
2023-04-15T05:14:23.547Z,101058.63
2023-04-15T05:16:50.963Z,101056.97
2023-04-15T05:19:18.367Z,101070.63
2023-04-15T05:21:45.969Z,101070.72
2023-04-15T05:24:13.378Z,101072.56
2023-04-15T05:26:42.439Z,101091.28
2023-04-15T05:29:10.385Z,101094.03
2023-04-15T05:31:37.965Z,101093.25
2023-04-15T05:34:05.528Z,101094.88
2023-04-15T05:36:32.924Z,101092.38
2023-04-15T05:39:00.879Z,101100.25
2023-04-15T05:41:28.489Z,101108.75
2023-04-15T05:43:56.186Z,101112.19
2023-04-15T05:46:23.685Z,101113.97
2023-04-15T05:48:51.549Z,101124.22
2023-04-15T05:51:18.938Z,101129.31
2023-04-15T05:53:47.023Z,101124.47
2023-04-15T05:56:14.485Z,101131.44
2023-04-15T05:58:42.162Z,101129.78
2023-04-15T06:01:09.611Z,101134.25
2023-04-15T06:03:37.108Z,101143.03
2023-04-15T06:06:04.604Z,101146.41
2023-04-15T06:08:32.206Z,101156.00
2023-04-15T06:10:59.827Z,101161.13
2023-04-15T06:13:27.443Z,101161.03
2023-04-15T06:15:54.875Z,101167.97
2023-04-15T06:18:22.366Z,101168.16
2023-04-15T06:20:50.199Z,101174.84
2023-04-15T06:23:17.601Z,101182.00
2023-04-15T06:25:45.035Z,101178.53
2023-04-15T06:28:12.508Z,101179.53
2023-04-15T06:30:40.182Z,101185.53
2023-04-15T06:33:07.633Z,101194.09
2023-04-15T06:35:35.050Z,101198.59
2023-04-15T06:38:02.457Z,101196.97
2023-04-15T06:40:29.914Z,101196.03
2023-04-15T06:42:57.698Z,101204.78
2023-04-15T06:45:25.233Z,101205.69
2023-04-15T06:47:52.726Z,101211.75
2023-04-15T06:50:20.205Z,101208.28
2023-04-15T06:52:47.700Z,101212.63
2023-04-15T06:55:15.462Z,101225.59
2023-04-15T06:57:42.954Z,101222.19
2023-04-15T07:00:12.136Z,101220.44
2023-04-15T07:02:39.817Z,101228.25
2023-04-15T07:05:07.530Z,101238.66
2023-04-15T07:07:35.035Z,101241.25
2023-04-15T07:10:03.394Z,101246.47
2023-04-15T07:12:31.026Z,101246.50
2023-04-15T07:14:58.405Z,101249.94
2023-04-15T07:17:25.787Z,101246.44
2023-04-15T07:19:53.186Z,101255.09
2023-04-15T07:22:20.589Z,101260.28
2023-04-15T07:24:47.966Z,101260.22
2023-04-15T07:27:15.697Z,101272.38
2023-04-15T07:29:43.103Z,101274.03
2023-04-15T07:32:11.299Z,101274.13
2023-04-15T07:34:38.748Z,101283.59
2023-04-15T07:37:06.111Z,101286.22
2023-04-15T07:39:33.495Z,101282.75
2023-04-15T07:42:00.959Z,101289.56
2023-04-15T07:44:28.477Z,101290.44
2023-04-15T07:46:56.047Z,101311.44
2023-04-15T07:49:23.775Z,101289.56
2023-04-15T07:51:51.515Z,101299.88
2023-04-15T07:54:18.946Z,101299.88
2023-04-15T07:56:46.322Z,101300.66
2023-04-15T07:59:15.352Z,101305.09
2023-04-15T08:01:42.933Z,101307.81
2023-04-15T08:04:10.860Z,101310.00
2023-04-15T08:06:39.917Z,101320.28
2023-04-15T08:09:08.147Z,101322.31
2023-04-15T08:11:36.507Z,101329.22
2023-04-15T08:14:03.999Z,101331.75
2023-04-15T08:16:31.919Z,101328.09
2023-04-15T08:18:59.753Z,101339.81
2023-04-15T08:21:27.735Z,101339.31
2023-04-15T08:23:55.441Z,101337.47
2023-04-15T08:26:23.214Z,101333.69
2023-04-15T08:28:51.209Z,101340.66
2023-04-15T08:31:19.261Z,101344.22
2023-04-15T08:33:47.101Z,101339.38
2023-04-15T08:36:14.938Z,101342.09
2023-04-15T08:38:42.390Z,101345.19
2023-04-15T08:41:20.118Z,101363.13
2023-04-15T08:44:07.791Z,101370.06
2023-04-15T08:46:35.624Z,101368.38
2023-04-15T08:49:05.401Z,101368.41
2023-04-15T08:51:33.622Z,101371.69
2023-04-15T08:54:01.520Z,101372.88
2023-04-15T08:56:29.240Z,101378.94
2023-04-15T08:58:56.762Z,101384.34
2023-04-15T09:01:24.279Z,101388.59
2023-04-15T09:03:52.154Z,101387.53
2023-04-15T09:06:19.780Z,101395.75
2023-04-15T09:08:47.400Z,101394.69
2023-04-15T09:11:14.790Z,101390.22
2023-04-15T09:13:42.688Z,101396.97
2023-04-15T09:16:10.724Z,101410.72
2023-04-15T09:18:39.637Z,101410.91
2023-04-15T09:21:08.956Z,101404.91
2023-04-15T09:23:36.985Z,101404.81
2023-04-15T09:26:04.749Z,101416.44
2023-04-15T09:28:32.218Z,101423.28
2023-04-15T09:31:00.372Z,101432.31
2023-04-15T09:33:28.788Z,101433.81
2023-04-15T09:35:59.374Z,101443.84
2023-04-15T09:38:26.890Z,101453.09
2023-04-15T09:40:54.412Z,101440.00
2023-04-15T09:43:22.099Z,101447.25
2023-04-15T09:45:53.726Z,101440.41
2023-04-15T09:48:22.048Z,101444.41
2023-04-15T09:50:50.321Z,101450.50
2023-04-15T09:53:19.116Z,101454.94
2023-04-15T09:55:47.304Z,101463.03
2023-04-15T09:58:27.962Z,101451.06
2023-04-15T10:00:57.281Z,101459.50
2023-04-15T10:03:26.574Z,101468.22
2023-04-15T10:05:55.842Z,101456.84
2023-04-15T10:08:25.067Z,101454.84
2023-04-15T10:10:52.884Z,101454.47
2023-04-15T10:13:22.423Z,101469.34
2023-04-15T10:15:56.993Z,101463.31
2023-04-15T10:18:26.231Z,101470.34
2023-04-15T10:20:54.007Z,101476.50
2023-04-15T10:23:21.863Z,101467.59
2023-04-15T10:25:50.670Z,101472.38
2023-04-15T10:28:18.354Z,101481.09
2023-04-15T10:30:46.115Z,101474.97
2023-04-15T10:33:14.192Z,101472.22
2023-04-15T10:35:41.990Z,101481.31
2023-04-15T10:38:28.484Z,101471.31
2023-04-15T10:41:12.907Z,101479.03
2023-04-15T10:43:40.326Z,101489.41
2023-04-15T10:46:07.737Z,101478.06
2023-04-15T10:48:35.166Z,101487.22
2023-04-15T10:51:03.875Z,101494.63
2023-04-15T10:53:32.956Z,101501.84
2023-04-15T10:56:00.618Z,101499.34
2023-04-15T10:58:41.997Z,101504.41
2023-04-15T11:01:09.430Z,101518.81
2023-04-15T11:03:41.046Z,101510.44
2023-04-15T11:06:08.774Z,101507.97
2023-04-15T11:08:55.947Z,101507.38
2023-04-15T11:11:23.692Z,101509.22
2023-04-15T11:13:52.429Z,101504.72
2023-04-15T11:16:19.950Z,101504.31
2023-04-15T11:18:56.826Z,101515.63
2023-04-15T11:21:25.990Z,101503.59
2023-04-15T11:23:53.473Z,101523.22
2023-04-15T11:26:20.910Z,101523.47
2023-04-15T11:28:48.403Z,101518.28
2023-04-15T11:31:17.795Z,101524.09
2023-04-15T11:33:47.052Z,101527.09
2023-04-15T11:36:14.811Z,101533.81
2023-04-15T11:38:46.589Z,101541.06
2023-04-15T11:41:14.383Z,101546.16
2023-04-15T11:43:42.621Z,101541.41
2023-04-15T11:46:10.116Z,101550.81
2023-04-15T11:48:37.616Z,101556.06
2023-04-15T11:51:06.450Z,101554.41
2023-04-15T11:53:40.977Z,101554.63
2023-04-15T11:56:09.324Z,101552.06
2023-04-15T11:58:38.491Z,101557.88
2023-04-15T12:01:07.239Z,101559.72
2023-04-15T12:03:39.424Z,101559.22
2023-04-15T12:06:20.444Z,101567.38
2023-04-15T12:08:57.232Z,101566.34
2023-04-15T12:11:27.618Z,101582.00
2023-04-15T12:13:56.118Z,101553.44
2023-04-15T12:16:23.902Z,101584.44
2023-04-15T12:18:56.127Z,101575.22
2023-04-15T12:21:24.712Z,101585.75
2023-04-15T12:23:56.916Z,101594.66
2023-04-15T12:26:32.784Z,101590.41
2023-04-15T12:29:03.994Z,101585.31
2023-04-15T12:31:31.506Z,101607.50
2023-04-15T12:34:00.614Z,101617.81
2023-04-15T12:36:28.499Z,101607.63
2023-04-15T12:38:55.988Z,101610.22
2023-04-15T12:41:24.449Z,101613.84
2023-04-15T12:43:52.293Z,101617.16
2023-04-15T12:46:20.375Z,101621.13
2023-04-15T12:48:48.054Z,101619.47
2023-04-15T12:51:15.621Z,101613.94
2023-04-15T12:53:43.042Z,101637.91
2023-04-15T12:56:10.440Z,101630.84
2023-04-15T12:58:37.812Z,101633.25
2023-04-15T13:01:05.274Z,101641.94
2023-04-15T13:03:33.022Z,101635.03
2023-04-15T13:06:02.191Z,101637.25
2023-04-15T13:08:29.634Z,101646.31
2023-04-15T13:10:57.115Z,101636.94
2023-04-15T13:13:24.539Z,101646.78
2023-04-15T13:15:52.013Z,101648.94
2023-04-15T13:18:19.463Z,101645.88
2023-04-15T13:20:47.210Z,101654.88
2023-04-15T13:23:14.789Z,101670.06
2023-04-15T13:25:42.413Z,101673.53
2023-04-15T13:28:11.994Z,101678.00
2023-04-15T13:30:39.722Z,101671.81
2023-04-15T13:33:07.399Z,101686.09
2023-04-15T13:35:34.908Z,101689.91
2023-04-15T13:38:02.370Z,101677.06
2023-04-15T13:40:29.813Z,101694.31
2023-04-15T13:42:58.556Z,101706.47
2023-04-15T13:45:25.984Z,101688.50
2023-04-15T13:47:53.885Z,101694.97
2023-04-15T13:50:21.413Z,101703.47
2023-04-15T13:52:48.824Z,101698.94
2023-04-15T13:55:22.389Z,101703.47
2023-04-15T13:57:51.870Z,101708.03
2023-04-15T14:00:19.381Z,101715.25
2023-04-15T14:02:47.022Z,101722.72
2023-04-15T14:05:14.581Z,101719.19
2023-04-15T14:07:42.074Z,101716.22
2023-04-15T14:10:09.667Z,101731.28
2023-04-15T14:12:37.114Z,101733.59
2023-04-15T14:15:05.089Z,101733.19
2023-04-15T14:17:34.143Z,101744.16
2023-04-15T14:20:01.656Z,101746.50
2023-04-15T14:22:29.184Z,101760.91
2023-04-15T14:24:56.653Z,101751.50
2023-04-15T14:27:24.048Z,101759.91
2023-04-15T14:29:51.437Z,101766.84
2023-04-15T14:32:18.866Z,101761.88
2023-04-15T14:34:46.236Z,101766.47
2023-04-15T14:37:13.689Z,101763.78
2023-04-15T14:39:41.175Z,101773.53
2023-04-15T14:42:08.620Z,101772.50
2023-04-15T14:44:36.322Z,101767.50
2023-04-15T14:47:03.740Z,101769.38
2023-04-15T14:49:31.510Z,101783.19
2023-04-15T14:51:58.889Z,101791.16
2023-04-15T14:54:26.358Z,101796.28
2023-04-15T14:56:53.816Z,101790.22
2023-04-15T14:59:21.233Z,101793.72
2023-04-15T15:01:49.106Z,101794.50
2023-04-15T15:04:16.761Z,101796.31
2023-04-15T15:06:44.196Z,101805.06
2023-04-15T15:09:11.619Z,101807.69
2023-04-15T15:11:39.024Z,101820.78
2023-04-15T15:14:06.524Z,101820.75
2023-04-15T15:16:34.138Z,101819.94
2023-04-15T15:19:01.626Z,101809.47
2023-04-15T15:21:29.049Z,101812.97
2023-04-15T15:23:56.434Z,101822.53
2023-04-15T15:26:24.297Z,101821.66
2023-04-15T15:28:51.744Z,101819.94
2023-04-15T15:31:19.157Z,101832.16
2023-04-15T15:33:46.540Z,101826.88
2023-04-15T15:36:13.995Z,101835.59
2023-04-15T15:38:41.738Z,101837.31
2023-04-15T15:41:09.242Z,101845.22
2023-04-15T15:43:37.748Z,101847.75
2023-04-15T15:46:05.440Z,101851.25
2023-04-15T15:48:32.922Z,101851.28
2023-04-15T15:51:00.351Z,101865.22
2023-04-15T15:53:27.764Z,101866.97
2023-04-15T15:55:55.179Z,101883.44
2023-04-15T15:58:22.590Z,101873.88
2023-04-15T16:00:50.089Z,101873.88
2023-04-15T16:03:17.788Z,101879.09
2023-04-15T16:05:46.124Z,101868.69
2023-04-15T16:08:13.545Z,101878.25
2023-04-15T16:10:41.227Z,101882.59
2023-04-15T16:13:08.880Z,101884.38
2023-04-15T16:15:36.316Z,101882.53
2023-04-15T16:18:03.787Z,101886.03
2023-04-15T16:20:31.382Z,101887.78
2023-04-15T16:22:59.234Z,101894.72
2023-04-15T16:25:26.668Z,101879.09
2023-04-15T16:28:00.794Z,101897.34
2023-04-15T16:30:33.445Z,101894.69
2023-04-15T16:33:01.035Z,101910.28
2023-04-15T16:35:28.529Z,101914.53
2023-04-15T16:37:55.986Z,101912.00
2023-04-15T16:40:23.382Z,101912.75
2023-04-15T16:42:51.032Z,101930.00
2023-04-15T16:45:18.527Z,101932.72
2023-04-15T16:47:45.950Z,101929.22
2023-04-15T16:50:13.438Z,101928.41
2023-04-15T16:52:40.816Z,101926.69
2023-04-15T16:55:08.359Z,101924.28
2023-04-15T16:58:00.744Z,101925.13
2023-04-15T17:00:23.310Z,101934.72
2023-04-15T17:02:51.122Z,101937.22
2023-04-15T17:05:18.630Z,101939.78
2023-04-15T17:07:46.118Z,101946.63
2023-04-15T17:10:14.251Z,101946.69
2023-04-15T17:12:41.691Z,101946.59
2023-04-15T17:15:09.526Z,101962.13
2023-04-15T17:17:36.944Z,101972.53
2023-04-15T17:20:04.631Z,101959.53
2023-04-15T17:22:33.542Z,101975.28
2023-04-15T17:25:01.011Z,101970.91
2023-04-15T17:27:28.955Z,101972.38
2023-04-15T17:29:56.391Z,101984.59
2023-04-15T17:32:24.264Z,101978.81
2023-04-15T17:34:51.707Z,101976.84
2023-04-15T17:37:19.198Z,101975.66
2023-04-15T17:39:46.666Z,101978.25
2023-04-15T17:42:14.526Z,101974.13
2023-04-15T17:44:42.029Z,101975.88
2023-04-15T17:47:09.497Z,101973.31
2023-04-15T17:49:37.872Z,101980.94
2023-04-15T17:52:05.366Z,101981.22
2023-04-15T17:54:33.129Z,101975.94
2023-04-15T17:57:03.115Z,101988.13
2023-04-15T17:59:30.835Z,101990.69
2023-04-15T18:01:59.118Z,102001.75
2023-04-15T18:04:26.970Z,102002.53
2023-04-15T18:06:54.804Z,102010.53
2023-04-15T18:09:22.163Z,102003.56
2023-04-15T18:11:49.595Z,102007.03
2023-04-15T18:14:30.693Z,102002.53
2023-04-15T18:17:00.763Z,102004.06
2023-04-15T18:19:28.295Z,102008.56
2023-04-15T18:21:55.701Z,102003.34
2023-04-15T18:24:23.318Z,102003.63
2023-04-15T18:26:50.779Z,102014.03
2023-04-15T18:29:18.519Z,102008.72
2023-04-15T18:31:46.165Z,102013.91
2023-04-15T18:34:13.800Z,102012.13
2023-04-15T18:36:41.195Z,102030.38
2023-04-15T18:39:08.631Z,102033.06
2023-04-15T18:41:36.105Z,101986.50
2023-04-15T18:44:03.544Z,102043.19
2023-04-15T18:46:30.963Z,102052.56
2023-04-15T18:48:58.424Z,102043.03
2023-04-15T18:51:25.958Z,102047.47
2023-04-15T18:53:53.444Z,102041.91
2023-04-15T18:56:20.871Z,102042.69
2023-04-15T18:59:27.106Z,102060.78
2023-04-15T19:01:35.680Z,102058.81
2023-04-15T19:04:03.346Z,102059.34
2023-04-15T19:06:30.965Z,102070.59
2023-04-15T19:08:58.566Z,102067.75
2023-04-15T19:11:26.598Z,102067.41
2023-04-15T19:13:54.319Z,102071.66
2023-04-15T19:16:21.817Z,102067.06
2023-04-15T19:18:49.265Z,102074.66
2023-04-15T19:21:16.796Z,102094.63
2023-04-15T19:23:44.511Z,102095.78
2023-04-15T19:26:12.605Z,102090.06
2023-04-15T19:28:40.091Z,102098.50
2023-04-15T19:31:07.547Z,102092.41
2023-04-15T19:33:35.318Z,102093.16
2023-04-15T19:36:04.033Z,102092.50
2023-04-15T19:38:31.782Z,102102.47
2023-04-15T19:40:59.437Z,102104.25
2023-04-15T19:43:27.201Z,102101.88
2023-04-15T19:45:54.966Z,102114.09
2023-04-15T19:48:23.403Z,102112.19
2023-04-15T19:50:50.938Z,102102.63
2023-04-15T19:53:18.428Z,102106.44
2023-04-15T19:55:46.982Z,102097.66
2023-04-15T19:58:14.369Z,102104.97
2023-04-15T20:00:41.856Z,102112.19
2023-04-15T20:03:09.458Z,102106.16
2023-04-15T20:05:37.057Z,102115.88
2023-04-15T20:08:04.543Z,102108.72
2023-04-15T20:10:32.256Z,102110.47
2023-04-15T20:12:59.812Z,102105.25
2023-04-15T20:15:27.291Z,102100.88
2023-04-15T20:17:54.925Z,102104.22
2023-04-15T20:20:22.524Z,102114.94
2023-04-15T20:22:49.994Z,102115.16
2023-04-15T20:25:17.340Z,102108.56
2023-04-15T20:27:45.164Z,102103.56
2023-04-15T20:30:12.590Z,102100.28
2023-04-15T20:32:39.970Z,102116.91
2023-04-15T20:35:07.852Z,102119.06
2023-04-15T20:37:36.217Z,102114.63
2023-04-15T20:40:03.726Z,102106.59
2023-04-15T20:42:34.555Z,102121.50
2023-04-15T20:45:02.421Z,102122.69
2023-04-15T20:47:30.256Z,102118.81
2023-04-15T20:49:57.729Z,102130.91
2023-04-15T20:52:25.076Z,102113.63
2023-04-15T20:54:52.578Z,102122.38
2023-04-15T20:57:20.461Z,102137.03
2023-04-15T20:59:47.900Z,102130.13
2023-04-15T21:02:15.637Z,102129.94
2023-04-15T21:04:43.111Z,102125.72
2023-04-15T21:07:10.735Z,102117.84
2023-04-15T21:09:41.255Z,102126.50
2023-04-15T21:12:08.717Z,102129.09
2023-04-15T21:14:37.034Z,102124.81
2023-04-15T21:17:09.269Z,102141.16
2023-04-15T21:19:38.619Z,102125.03
2023-04-15T21:22:06.284Z,102141.41
2023-04-15T21:24:33.681Z,102134.78
2023-04-15T21:27:01.933Z,102134.41
2023-04-15T21:29:29.454Z,102145.66
2023-04-15T21:31:56.977Z,102142.66
2023-04-15T21:34:24.490Z,102150.97
2023-04-15T21:36:51.910Z,102151.25
2023-04-15T21:39:19.400Z,102156.25
2023-04-15T21:41:47.161Z,102153.88
2023-04-15T21:44:15.094Z,102149.09
2023-04-15T21:46:45.982Z,102147.22
2023-04-15T21:49:13.797Z,102154.25
2023-04-15T21:51:41.264Z,102156.19
2023-04-15T21:54:08.630Z,102152.47
2023-04-15T21:56:36.783Z,102157.56
2023-04-15T21:59:04.445Z,102164.06
2023-04-15T22:01:32.162Z,102152.19
2023-04-15T22:03:59.680Z,102157.19
2023-04-15T22:06:27.263Z,102169.28
2023-04-15T22:08:57.333Z,102159.09
2023-04-15T22:11:27.854Z,102157.44
2023-04-15T22:13:55.802Z,102167.94
2023-04-15T22:16:23.242Z,102162.78
2023-04-15T22:18:50.595Z,102166.19
2023-04-15T22:21:18.142Z,102165.22
2023-04-15T22:23:49.067Z,102162.69
2023-04-15T22:26:16.492Z,102173.41
2023-04-15T22:28:43.974Z,102168.56
2023-04-15T22:31:11.423Z,102162.91
2023-04-15T22:33:40.151Z,102171.63
2023-04-15T22:36:07.514Z,102175.84
2023-04-15T22:38:34.932Z,102176.72
2023-04-15T22:41:02.353Z,102182.63
2023-04-15T22:43:29.811Z,102186.97
2023-04-15T22:45:57.276Z,102188.81
2023-04-15T22:48:24.664Z,102185.22
2023-04-15T22:50:52.095Z,102187.25
2023-04-15T22:53:20.055Z,102199.34
2023-04-15T22:55:47.845Z,102190.72
2023-04-15T22:58:15.684Z,102190.56
2023-04-15T23:00:43.222Z,102194.22
2023-04-15T23:03:11.367Z,102202.81
2023-04-15T23:05:40.085Z,102212.19
2023-04-15T23:08:08.122Z,102212.94
2023-04-15T23:10:35.507Z,102224.28
2023-04-15T23:13:02.895Z,102210.66
2023-04-15T23:15:30.318Z,102222.59
2023-04-15T23:17:57.787Z,102215.78
2023-04-15T23:20:25.272Z,102217.31
2023-04-15T23:22:52.726Z,102217.63
2023-04-15T23:25:22.190Z,102223.63
2023-04-15T23:27:49.638Z,102218.72
2023-04-15T23:30:17.053Z,102225.47
2023-04-15T23:32:44.470Z,102214.31
2023-04-15T23:35:12.024Z,102228.78
2023-04-15T23:37:39.487Z,102227.72
2023-04-15T23:40:07.298Z,102232.69
2023-04-15T23:42:34.751Z,102234.38
2023-04-15T23:45:02.108Z,102239.78
2023-04-15T23:47:29.496Z,102234.00
2023-04-15T23:49:56.897Z,102235.78
2023-04-15T23:52:24.339Z,102236.31
2023-04-15T23:54:51.770Z,102234.63
2023-04-15T23:57:19.470Z,102237.28
2023-04-15T23:59:46.975Z,102232.44
